createdAt,value
2022-09-10T00:00:23.389Z,10.59
2022-09-10T00:02:56.295Z,10.54
2022-09-10T00:05:30.262Z,10.53
2022-09-10T00:08:04.707Z,10.51
2022-09-10T00:10:47.962Z,10.51
2022-09-10T00:13:23.401Z,10.49
2022-09-10T00:15:57.186Z,10.47
2022-09-10T00:18:29.891Z,10.42
2022-09-10T00:21:05.104Z,10.39
2022-09-10T00:23:38.834Z,10.39
2022-09-10T00:26:22.069Z,10.38
2022-09-10T00:28:58.633Z,10.35
2022-09-10T00:31:32.916Z,10.31
2022-09-10T00:34:07.117Z,10.25
2022-09-10T00:36:41.719Z,10.18
2022-09-10T00:39:18.655Z,10.12
2022-09-10T00:41:52.862Z,10.09
2022-09-10T00:44:46.264Z,10.09
2022-09-10T00:47:26.669Z,10.05
2022-09-10T00:50:04.038Z,10.01
2022-09-10T00:52:39.908Z,10.00
2022-09-10T00:55:14.103Z,9.96
2022-09-10T00:57:47.728Z,9.93
2022-09-10T01:00:20.523Z,9.91
2022-09-10T01:02:53.926Z,9.87
2022-09-10T01:05:29.578Z,9.84
2022-09-10T01:08:03.157Z,9.82
2022-09-10T01:10:41.694Z,9.79
2022-09-10T01:13:44.465Z,9.75
2022-09-10T01:16:27.986Z,9.73
2022-09-10T01:19:09.261Z,9.70
2022-09-10T01:22:08.194Z,9.69
2022-09-10T01:25:01.027Z,9.64
2022-09-10T01:27:55.009Z,9.60
2022-09-10T01:30:41.510Z,9.56
2022-09-10T01:33:38.153Z,9.51
2022-09-10T01:36:15.573Z,9.48
2022-09-10T01:38:51.070Z,9.45
2022-09-10T01:41:26.593Z,9.41
2022-09-10T01:44:01.755Z,9.38
2022-09-10T01:46:47.934Z,9.35
2022-09-10T01:49:39.995Z,9.35
2022-09-10T01:52:43.720Z,9.33
2022-09-10T01:55:54.234Z,9.31
2022-09-10T01:58:45.012Z,9.33
2022-09-10T02:01:47.697Z,9.34
2022-09-10T02:04:21.990Z,9.37
2022-09-10T02:06:54.053Z,9.37
2022-09-10T02:09:28.069Z,9.38
2022-09-10T02:12:02.465Z,9.38
2022-09-10T02:14:58.134Z,9.39
2022-09-10T02:17:41.900Z,9.36
2022-09-10T02:20:16.235Z,9.34
2022-09-10T02:22:53.733Z,9.31
2022-09-10T02:25:30.321Z,9.31
2022-09-10T02:28:03.412Z,9.28
2022-09-10T02:30:37.345Z,9.27
2022-09-10T02:33:12.296Z,9.26
2022-09-10T02:35:48.035Z,9.24
2022-09-10T02:38:21.746Z,9.20
2022-09-10T02:40:56.276Z,9.18
2022-09-10T02:43:30.122Z,9.18
2022-09-10T02:46:08.494Z,9.14
2022-09-10T02:48:42.270Z,9.16
2022-09-10T02:51:15.101Z,9.14
2022-09-10T02:53:48.030Z,9.14
2022-09-10T02:56:21.202Z,9.14
2022-09-10T02:58:54.450Z,9.14
2022-09-10T03:01:28.876Z,9.14
2022-09-10T03:04:06.935Z,9.13
2022-09-10T03:06:40.398Z,9.13
2022-09-10T03:09:13.559Z,9.12
2022-09-10T03:11:46.867Z,9.12
2022-09-10T03:14:21.793Z,9.09
2022-09-10T03:16:55.884Z,9.09
2022-09-10T03:19:29.495Z,9.08
2022-09-10T03:22:03.349Z,9.12
2022-09-10T03:24:37.601Z,9.17
2022-09-10T03:27:11.470Z,9.20
2022-09-10T03:29:44.612Z,9.27
2022-09-10T03:32:18.100Z,9.31
2022-09-10T03:34:50.849Z,9.33
2022-09-10T03:37:24.493Z,9.37
2022-09-10T03:39:58.845Z,9.43
2022-09-10T03:42:31.885Z,9.48
2022-09-10T03:45:05.466Z,9.52
2022-09-10T03:47:39.753Z,9.58
2022-09-10T03:50:12.388Z,9.63
2022-09-10T03:52:46.485Z,9.67
2022-09-10T03:55:19.453Z,9.71
2022-09-10T03:57:52.445Z,9.74
2022-09-10T04:00:25.106Z,9.78
2022-09-10T04:02:58.536Z,9.83
2022-09-10T04:05:32.629Z,9.88
2022-09-10T04:08:07.708Z,9.95
2022-09-10T04:10:42.317Z,10.02
2022-09-10T04:13:16.460Z,10.09
2022-09-10T04:15:49.623Z,10.16
2022-09-10T04:18:22.501Z,10.22
2022-09-10T04:20:57.811Z,10.30
2022-09-10T04:23:30.745Z,10.40
2022-09-10T04:26:20.735Z,10.48
2022-09-10T04:28:55.090Z,10.54
2022-09-10T04:31:27.775Z,10.62
2022-09-10T04:34:02.493Z,10.71
2022-09-10T04:36:37.271Z,10.80
2022-09-10T04:39:11.825Z,10.89
2022-09-10T04:41:45.537Z,11.01
2022-09-10T04:44:20.435Z,11.10
2022-09-10T04:46:53.657Z,11.16
2022-09-10T04:49:27.793Z,11.22
2022-09-10T04:52:00.575Z,11.30
2022-09-10T04:54:34.072Z,11.37
2022-09-10T04:57:09.376Z,11.47
2022-09-10T04:59:42.934Z,11.53
2022-09-10T05:02:16.616Z,11.62
2022-09-10T05:04:50.979Z,11.71
2022-09-10T05:07:23.718Z,11.80
2022-09-10T05:09:57.182Z,11.87
2022-09-10T05:12:31.680Z,11.94
2022-09-10T05:15:07.663Z,12.02
2022-09-10T05:17:41.365Z,12.07
2022-09-10T05:20:15.038Z,12.12
2022-09-10T05:22:49.422Z,12.19
2022-09-10T05:25:23.298Z,12.23
2022-09-10T05:27:56.525Z,12.30
2022-09-10T05:30:31.512Z,12.35
2022-09-10T05:33:05.342Z,12.40
2022-09-10T05:35:39.049Z,12.49
2022-09-10T05:38:15.101Z,12.57
2022-09-10T05:40:49.274Z,12.61
2022-09-10T05:43:22.733Z,12.68
2022-09-10T05:45:56.331Z,12.74
2022-09-10T05:48:29.657Z,12.81
2022-09-10T05:51:03.469Z,12.88
2022-09-10T05:53:36.340Z,12.95
2022-09-10T05:56:10.289Z,13.02
2022-09-10T05:58:45.589Z,13.09
2022-09-10T06:01:20.075Z,13.14
2022-09-10T06:03:53.089Z,13.22
2022-09-10T06:06:28.556Z,13.28
2022-09-10T06:09:02.863Z,13.32
2022-09-10T06:11:53.627Z,13.36
2022-09-10T06:14:28.024Z,13.44
2022-09-10T06:17:01.406Z,13.54
2022-09-10T06:19:36.246Z,13.69
2022-09-10T06:22:11.073Z,13.81
2022-09-10T06:24:47.407Z,13.92
2022-09-10T06:27:20.471Z,14.04
2022-09-10T06:29:53.823Z,14.19
2022-09-10T06:32:28.574Z,14.35
2022-09-10T06:35:01.496Z,14.46
2022-09-10T06:37:36.071Z,14.59
2022-09-10T06:40:11.301Z,14.70
2022-09-10T06:42:44.583Z,14.78
2022-09-10T06:45:20.026Z,14.81
2022-09-10T06:50:33.864Z,14.83
2022-09-10T06:53:07.275Z,14.86
2022-09-10T06:55:40.112Z,14.90
2022-09-10T06:58:13.074Z,14.93
2022-09-10T07:00:47.805Z,14.98
2022-09-10T07:03:23.298Z,15.02
2022-09-10T07:05:57.133Z,15.08
2022-09-10T07:08:31.650Z,15.17
2022-09-10T07:11:08.263Z,15.25
2022-09-10T07:13:42.147Z,15.35
2022-09-10T07:16:16.866Z,15.49
2022-09-10T07:18:57.820Z,15.62
2022-09-10T07:21:32.969Z,15.75
2022-09-10T07:24:07.856Z,15.90
2022-09-10T07:26:41.970Z,16.04
2022-09-10T07:29:15.778Z,16.21
2022-09-10T07:31:48.906Z,16.34
2022-09-10T07:34:25.625Z,16.46
2022-09-10T07:36:58.628Z,16.55
2022-09-10T07:39:31.656Z,16.57
2022-09-10T07:42:04.719Z,16.59
2022-09-10T07:44:39.137Z,16.57
2022-09-10T07:47:12.124Z,16.52
2022-09-10T07:49:45.294Z,16.46
2022-09-10T07:52:18.977Z,16.41
2022-09-10T07:54:53.856Z,16.40
2022-09-10T07:57:27.010Z,16.45
2022-09-10T08:00:01.114Z,16.55
2022-09-10T08:02:36.267Z,16.63
2022-09-10T08:05:10.924Z,16.67
2022-09-10T08:07:44.200Z,16.62
2022-09-10T08:10:17.476Z,16.54
2022-09-10T08:12:51.026Z,16.53
2022-09-10T08:15:24.452Z,16.60
2022-09-10T08:18:00.861Z,16.60
2022-09-10T08:20:34.256Z,16.71
2022-09-10T08:23:08.380Z,16.82
2022-09-10T08:25:42.058Z,16.91
2022-09-10T08:28:15.733Z,16.99
2022-09-10T08:31:04.697Z,17.03
2022-09-10T08:33:41.000Z,17.04
2022-09-10T08:36:15.285Z,16.96
2022-09-10T08:38:50.531Z,16.95
2022-09-10T08:41:40.659Z,16.99
2022-09-10T08:44:29.058Z,17.05
2022-09-10T08:47:20.564Z,17.10
2022-09-10T08:49:58.828Z,17.15
2022-09-10T08:52:37.743Z,17.19
2022-09-10T08:55:25.147Z,17.25
2022-09-10T08:58:07.193Z,17.31
2022-09-10T09:00:43.237Z,17.34
2022-09-10T09:03:42.282Z,17.38
2022-09-10T09:06:25.687Z,17.42
2022-09-10T09:09:02.110Z,17.45
2022-09-10T09:11:44.340Z,17.51
2022-09-10T09:14:43.043Z,17.58
2022-09-10T09:17:40.118Z,17.68
2022-09-10T09:20:41.746Z,17.74
2022-09-10T09:23:23.855Z,17.78
2022-09-10T09:26:02.598Z,17.86
2022-09-10T09:29:10.923Z,17.97
2022-09-10T09:31:49.607Z,18.06
2022-09-10T09:34:51.112Z,18.13
2022-09-10T09:37:31.449Z,18.15
2022-09-10T09:40:23.738Z,18.26
2022-09-10T09:43:04.397Z,18.31
2022-09-10T09:45:47.514Z,18.33
2022-09-10T09:48:22.754Z,18.34
2022-09-10T09:51:01.932Z,18.36
2022-09-10T09:53:35.797Z,18.36
2022-09-10T09:56:15.908Z,18.41
2022-09-10T09:58:51.196Z,18.48
2022-09-10T10:01:26.145Z,18.57
2022-09-10T10:04:03.409Z,18.64
2022-09-10T10:06:47.898Z,18.69
2022-09-10T10:09:24.180Z,18.70
2022-09-10T10:12:00.080Z,18.69
2022-09-10T10:14:43.386Z,18.75
2022-09-10T10:17:33.073Z,18.85
2022-09-10T10:20:14.026Z,18.93
2022-09-10T10:22:49.961Z,19.03
2022-09-10T10:25:38.973Z,19.13
2022-09-10T10:28:24.771Z,19.23
2022-09-10T10:31:00.963Z,19.28
2022-09-10T10:33:35.608Z,19.31
2022-09-10T10:36:21.931Z,19.30
2022-09-10T10:39:11.022Z,19.29
2022-09-10T10:42:15.822Z,19.24
2022-09-10T10:45:05.644Z,19.22
2022-09-10T10:47:49.821Z,19.24
2022-09-10T10:50:39.390Z,19.28
2022-09-10T10:53:49.081Z,19.29
2022-09-10T10:56:48.347Z,19.31
2022-09-10T10:59:53.575Z,19.42
2022-09-10T11:02:50.734Z,19.53
2022-09-10T11:05:45.365Z,19.60
2022-09-10T11:08:39.215Z,19.62
2022-09-10T11:11:19.831Z,19.60
2022-09-10T11:14:27.634Z,19.64
2022-09-10T11:17:05.882Z,19.73
2022-09-10T11:19:53.324Z,19.82
2022-09-10T11:22:27.246Z,19.90
2022-09-10T11:25:19.594Z,19.94
2022-09-10T11:28:12.533Z,19.97
2022-09-10T11:30:50.892Z,20.00
2022-09-10T11:33:49.609Z,20.02
2022-09-10T11:36:35.967Z,20.02
2022-09-10T11:39:21.874Z,20.03
2022-09-10T11:41:55.963Z,20.07
2022-09-10T11:44:47.800Z,20.10
2022-09-10T11:47:28.017Z,20.12
2022-09-10T11:50:07.389Z,20.12
2022-09-10T11:52:40.644Z,20.15
2022-09-10T11:55:18.654Z,20.19
2022-09-10T11:58:01.324Z,20.25
2022-09-10T12:00:37.931Z,20.34
2022-09-10T12:03:33.781Z,20.38
2022-09-10T12:06:27.047Z,20.42
2022-09-10T12:09:13.613Z,20.42
2022-09-10T12:12:09.886Z,20.39
2022-09-10T12:14:43.405Z,20.37
2022-09-10T12:17:27.614Z,20.37
2022-09-10T12:20:01.600Z,20.38
2022-09-10T12:22:41.628Z,20.40
2022-09-10T12:25:28.297Z,20.42
2022-09-10T12:28:03.178Z,20.45
2022-09-10T12:30:41.735Z,20.49
2022-09-10T12:33:24.238Z,20.49
2022-09-10T12:35:58.191Z,20.51
2022-09-10T12:39:08.977Z,20.52
2022-09-10T12:41:47.134Z,20.54
2022-09-10T12:44:39.359Z,20.56
2022-09-10T12:47:28.806Z,20.59
2022-09-10T12:50:08.987Z,20.58
2022-09-10T12:52:55.025Z,20.60
2022-09-10T12:56:02.497Z,20.57
2022-09-10T12:58:46.641Z,20.53
2022-09-10T13:01:49.633Z,20.48
2022-09-10T13:04:39.141Z,20.46
2022-09-10T13:07:40.029Z,20.39
2022-09-10T13:10:29.191Z,20.38
2022-09-10T13:13:05.845Z,20.34
2022-09-10T13:15:40.335Z,20.31
2022-09-10T13:18:29.354Z,20.29
2022-09-10T13:21:22.233Z,20.25
2022-09-10T13:23:59.156Z,20.21
2022-09-10T13:26:52.700Z,20.20
2022-09-10T13:29:40.480Z,20.17
2022-09-10T13:32:33.085Z,20.15
2022-09-10T13:35:31.554Z,20.15
2022-09-10T13:38:23.808Z,20.16
2022-09-10T13:41:13.579Z,20.16
2022-09-10T13:43:51.293Z,20.16
2022-09-10T13:46:37.098Z,20.16
2022-09-10T13:49:47.655Z,20.12
2022-09-10T13:52:25.287Z,20.08
2022-09-10T13:54:59.597Z,20.02
2022-09-10T13:57:44.330Z,19.98
2022-09-10T14:00:26.021Z,19.94
2022-09-10T14:03:02.019Z,19.90
2022-09-10T14:05:39.541Z,19.86
2022-09-10T14:08:41.549Z,19.84
2022-09-10T14:11:18.675Z,19.82
2022-09-10T14:13:59.080Z,19.79
2022-09-10T14:16:36.733Z,19.77
2022-09-10T14:19:19.810Z,19.77
2022-09-10T14:21:53.666Z,19.75
2022-09-10T14:24:33.818Z,19.75
2022-09-10T14:27:27.951Z,19.72
2022-09-10T14:30:30.222Z,19.71
2022-09-10T14:33:36.885Z,19.68
2022-09-10T14:36:31.754Z,19.66
2022-09-10T14:39:22.630Z,19.63
2022-09-10T14:42:30.099Z,19.61
2022-09-10T14:45:03.725Z,19.59
2022-09-10T14:47:38.622Z,19.57
2022-09-10T14:50:34.907Z,19.57
2022-09-10T14:53:08.089Z,19.57
2022-09-10T14:55:41.857Z,19.58
2022-09-10T14:58:14.931Z,19.59
2022-09-10T15:00:48.249Z,19.59
2022-09-10T15:03:21.270Z,19.57
2022-09-10T15:05:54.113Z,19.52
2022-09-10T15:08:27.184Z,19.46
2022-09-10T15:11:00.836Z,19.39
2022-09-10T15:13:35.030Z,19.31
2022-09-10T15:16:07.735Z,19.22
2022-09-10T15:18:41.833Z,19.11
2022-09-10T15:21:16.793Z,19.01
2022-09-10T15:23:49.510Z,18.91
2022-09-10T15:26:22.458Z,18.79
2022-09-10T15:28:55.610Z,18.71
2022-09-10T15:31:32.469Z,18.61
2022-09-10T15:34:03.794Z,18.52
2022-09-10T15:36:39.071Z,18.41
2022-09-10T15:39:13.950Z,18.32
2022-09-10T15:41:47.474Z,18.23
2022-09-10T15:44:20.303Z,18.14
2022-09-10T15:46:53.404Z,18.05
2022-09-10T15:49:26.980Z,17.97
2022-09-10T15:52:00.576Z,17.88
2022-09-10T15:54:34.289Z,17.81
2022-09-10T15:57:07.194Z,17.74
2022-09-10T15:59:41.463Z,17.66
2022-09-10T16:02:14.692Z,17.59
2022-09-10T16:04:48.764Z,17.53
2022-09-10T16:07:22.060Z,17.44
2022-09-10T16:09:55.478Z,17.36
2022-09-10T16:12:28.503Z,17.31
2022-09-10T16:15:01.691Z,17.25
2022-09-10T16:17:34.909Z,17.17
2022-09-10T16:20:09.164Z,17.10
2022-09-10T16:22:41.898Z,17.02
2022-09-10T16:25:15.350Z,16.93
2022-09-10T16:27:48.570Z,16.87
2022-09-10T16:30:21.486Z,16.78
2022-09-10T16:32:55.752Z,16.72
2022-09-10T16:35:28.800Z,16.66
2022-09-10T16:38:01.771Z,16.57
2022-09-10T16:40:34.957Z,16.51
2022-09-10T16:43:07.980Z,16.45
2022-09-10T16:45:42.695Z,16.39
2022-09-10T16:48:16.451Z,16.32
2022-09-10T16:50:49.345Z,16.25
2022-09-10T16:53:22.438Z,16.16
2022-09-10T16:56:01.510Z,16.10
2022-09-10T16:58:36.080Z,16.03
2022-09-10T17:01:10.796Z,15.94
2022-09-10T17:03:46.767Z,15.83
2022-09-10T17:06:24.766Z,15.72
2022-09-10T17:09:00.822Z,15.62
2022-09-10T17:11:35.849Z,15.52
2022-09-10T17:14:11.726Z,15.44
2022-09-10T17:16:45.264Z,15.35
2022-09-10T17:19:26.105Z,15.29
2022-09-10T17:21:59.723Z,15.23
2022-09-10T17:24:32.638Z,15.15
2022-09-10T17:27:05.684Z,15.08
2022-09-10T17:29:39.406Z,15.00
2022-09-10T17:32:12.591Z,14.90
2022-09-10T17:34:47.943Z,14.81
2022-09-10T17:37:21.164Z,14.74
2022-09-10T17:39:55.416Z,14.67
2022-09-10T17:42:28.775Z,14.60
2022-09-10T17:45:02.518Z,14.54
2022-09-10T17:47:35.402Z,14.49
2022-09-10T17:50:09.666Z,14.44
2022-09-10T17:52:44.624Z,14.39
2022-09-10T17:55:19.016Z,14.34
2022-09-10T17:57:51.747Z,14.31
2022-09-10T18:00:24.582Z,14.27
2022-09-10T18:02:57.980Z,14.23
2022-09-10T18:05:31.001Z,14.19
2022-09-10T18:08:04.610Z,14.15
2022-09-10T18:10:38.183Z,14.12
2022-09-10T18:13:11.073Z,14.07
2022-09-10T18:15:46.298Z,14.03
2022-09-10T18:18:19.760Z,14.00
2022-09-10T18:20:52.873Z,13.96
2022-09-10T18:23:26.243Z,13.92
2022-09-10T18:26:00.405Z,13.87
2022-09-10T18:28:33.755Z,13.83
2022-09-10T18:31:07.020Z,13.79
2022-09-10T18:33:41.747Z,13.75
2022-09-10T18:36:19.603Z,13.71
2022-09-10T18:38:53.424Z,13.67
2022-09-10T18:41:32.189Z,13.64
2022-09-10T18:44:08.211Z,13.62
2022-09-10T18:46:41.094Z,13.57
2022-09-10T18:49:21.382Z,13.53
2022-09-10T18:51:57.585Z,13.49
2022-09-10T18:54:30.738Z,13.47
2022-09-10T18:57:03.930Z,13.44
2022-09-10T18:59:38.641Z,13.41
2022-09-10T19:02:13.311Z,13.36
2022-09-10T19:05:09.716Z,13.30
2022-09-10T19:07:22.075Z,13.24
2022-09-10T19:09:54.801Z,13.19
2022-09-10T19:12:28.876Z,13.14
2022-09-10T19:15:01.887Z,13.08
2022-09-10T19:17:35.080Z,13.06
2022-09-10T19:20:09.979Z,13.01
2022-09-10T19:22:44.107Z,12.98
2022-09-10T19:25:17.074Z,12.93
2022-09-10T19:27:50.555Z,12.90
2022-09-10T19:30:23.378Z,12.87
2022-09-10T19:32:56.552Z,12.83
2022-09-10T19:35:30.067Z,12.81
2022-09-10T19:38:21.061Z,12.76
2022-09-10T19:40:38.139Z,12.72
2022-09-10T19:43:12.820Z,12.67
2022-09-10T19:45:45.706Z,12.64
2022-09-10T19:48:20.273Z,12.61
2022-09-10T19:50:53.497Z,12.58
2022-09-10T19:53:27.052Z,12.53
2022-09-10T19:56:11.865Z,12.50
2022-09-10T19:58:46.526Z,12.45
2022-09-10T20:01:23.979Z,12.42
2022-09-10T20:03:57.360Z,12.41
2022-09-10T20:06:31.400Z,12.39
2022-09-10T20:09:06.585Z,12.37
2022-09-10T20:11:39.981Z,12.33
2022-09-10T20:14:15.760Z,12.28
2022-09-10T20:16:48.561Z,12.26
2022-09-10T20:19:22.377Z,12.22
2022-09-10T20:21:55.327Z,12.18
2022-09-10T20:24:28.612Z,12.18
2022-09-10T20:27:01.601Z,12.18
2022-09-10T20:29:34.770Z,12.18
2022-09-10T20:32:08.729Z,12.19
2022-09-10T20:34:41.620Z,12.21
2022-09-10T20:37:14.502Z,12.20
2022-09-10T20:39:48.730Z,12.21
2022-09-10T20:42:22.300Z,12.25
2022-09-10T20:44:57.050Z,12.29
2022-09-10T20:47:31.621Z,12.31
2022-09-10T20:50:04.529Z,12.34
2022-09-10T20:52:38.500Z,12.33
2022-09-10T20:55:12.134Z,12.33
2022-09-10T20:57:45.492Z,12.33
2022-09-10T21:00:18.585Z,12.33
2022-09-10T21:02:51.863Z,12.34
2022-09-10T21:05:24.624Z,12.35
2022-09-10T21:07:57.934Z,12.35
2022-09-10T21:10:30.853Z,12.37
2022-09-10T21:13:05.044Z,12.40
2022-09-10T21:15:38.328Z,12.41
2022-09-10T21:18:11.464Z,12.41
2022-09-10T21:20:44.337Z,12.41
2022-09-10T21:23:18.168Z,12.43
2022-09-10T21:25:53.697Z,12.45
2022-09-10T21:28:27.496Z,12.46
2022-09-10T21:31:05.716Z,12.47
2022-09-10T21:33:39.249Z,12.47
2022-09-10T21:36:18.927Z,12.48
2022-09-10T21:38:57.824Z,12.51
2022-09-10T21:41:37.942Z,12.53
2022-09-10T21:44:17.009Z,12.52
2022-09-10T21:46:51.693Z,12.53
2022-09-10T21:49:24.487Z,12.52
2022-09-10T21:51:57.785Z,12.52
2022-09-10T21:54:30.694Z,12.52
2022-09-10T21:57:04.485Z,12.55
2022-09-10T21:59:38.031Z,12.56
2022-09-10T22:02:11.723Z,12.57
2022-09-10T22:04:44.571Z,12.57
2022-09-10T22:07:17.642Z,12.57
2022-09-10T22:09:51.038Z,12.58
2022-09-10T22:12:25.352Z,12.57
2022-09-10T22:14:58.478Z,12.57
2022-09-10T22:17:31.304Z,12.56
2022-09-10T22:20:05.662Z,12.57
2022-09-10T22:22:39.668Z,12.59
2022-09-10T22:25:12.826Z,12.60
2022-09-10T22:27:45.538Z,12.61
2022-09-10T22:30:18.927Z,12.58
2022-09-10T22:32:52.102Z,12.57
2022-09-10T22:35:31.329Z,12.57
2022-09-10T22:38:04.409Z,12.56
2022-09-10T22:40:38.169Z,12.55
2022-09-10T22:43:11.002Z,12.53
2022-09-10T22:45:43.918Z,12.51
2022-09-10T22:48:16.963Z,12.50
2022-09-10T22:50:50.245Z,12.48
2022-09-10T22:53:22.958Z,12.47
2022-09-10T22:55:56.323Z,12.46
2022-09-10T22:58:29.515Z,12.44
2022-09-10T23:01:17.187Z,12.42
2022-09-10T23:03:50.071Z,12.40
2022-09-10T23:06:25.076Z,12.35
2022-09-10T23:09:11.828Z,12.30
2022-09-10T23:11:46.361Z,12.26
2022-09-10T23:14:22.243Z,12.24
2022-09-10T23:16:55.731Z,12.18
2022-09-10T23:19:30.052Z,12.12
2022-09-10T23:22:04.087Z,12.09
2022-09-10T23:24:36.835Z,12.07
2022-09-10T23:27:09.845Z,12.05
2022-09-10T23:29:43.231Z,12.02
2022-09-10T23:32:16.197Z,12.02
2022-09-10T23:34:50.747Z,12.02
2022-09-10T23:37:25.142Z,11.98
2022-09-10T23:39:58.081Z,11.97
2022-09-10T23:42:31.507Z,11.98
2022-09-10T23:45:04.288Z,11.99
2022-09-10T23:47:37.994Z,11.98
2022-09-10T23:50:11.235Z,11.97
2022-09-10T23:52:44.455Z,11.95
2022-09-10T23:55:17.313Z,11.91
2022-09-10T23:57:51.080Z,11.87
